Time;durP1;ratioP1;P1;durP2;ratioP2;P2;SDS_P1;SDS_P2;PMS_P1;PMS_P2;Temp;Humidity;BMP_temperature;BMP_pressure;BME280_temperature;BME280_humidity;BME280_pressure;Samples;Min_cycle;Max_cycle;Signal;HPM_P1;HPM_P2
2022/02/10 00:07:12;;;;;;;14.18;9.25;;;;;;;3.45;100.00;101398.09;682041;28;1104;-53
2022/02/10 00:13:32;;;;;;;13.65;10.35;;;;;;;3.35;100.00;101384.84;677861;28;4383;-54
2022/02/10 00:17:29;;;;;;;15.55;10.70;;;;;;;3.37;100.00;101390.94;678730;28;2004;-50
2022/02/10 00:20:11;;;;;;;13.95;10.65;;;;;;;3.16;100.00;101385.00;672656;29;1204;-53
2022/02/10 00:20:39;;;;;;;15.35;10.80;;;;;;;3.16;100.00;101379.84;678875;29;2512;-54
2022/02/10 00:21:04;;;;;;;16.10;11.57;;;;;;;3.18;100.00;101383.34;679759;28;1188;-52
2022/02/10 00:21:48;;;;;;;14.15;11.40;;;;;;;3.19;100.00;101378.22;677277;29;1185;-55
2022/02/10 00:22:40;;;;;;;14.82;11.38;;;;;;;3.12;100.00;101380.56;680379;28;1212;-56
2022/02/10 00:24:12;;;;;;;16.07;12.03;;;;;;;3.03;100.00;101369.03;681404;28;908;-56
2022/02/10 00:24:59;;;;;;;15.45;11.50;;;;;;;2.95;100.00;101375.63;680896;28;1697;-52
2022/02/10 00:34:23;;;;;;;14.77;11.57;;;;;;;3.23;100.00;101366.31;674172;29;4732;-53
2022/02/10 00:34:46;;;;;;;15.25;11.25;;;;;;;3.20;100.00;101366.22;676352;29;917;-51
2022/02/10 00:36:12;;;;;;;14.88;11.05;;;;;;;3.21;100.00;101360.19;677438;28;3279;-52
2022/02/10 00:36:39;;;;;;;15.35;11.27;;;;;;;3.23;100.00;101362.00;679101;28;1119;-55
2022/02/10 00:37:35;;;;;;;16.08;11.32;;;;;;;3.11;100.00;101360.69;681270;28;926;-54
2022/02/10 00:37:59;;;;;;;15.50;11.23;;;;;;;3.03;100.00;101363.88;682248;28;1096;-52
2022/02/10 00:38:23;;;;;;;15.55;11.52;;;;;;;3.01;100.00;101359.47;681487;28;1168;-53
2022/02/10 00:38:54;;;;;;;17.15;11.98;;;;;;;2.97;100.00;101361.06;680792;28;900;-53
2022/02/10 00:40:10;;;;;;;14.55;11.48;;;;;;;3.02;100.00;101356.06;681204;28;4531;-53
2022/02/10 00:40:33;;;;;;;16.63;11.38;;;;;;;3.19;100.00;101361.84;681916;28;1283;-53
2022/02/10 00:40:53;;;;;;;14.65;11.68;;;;;;;3.18;100.00;101362.66;681871;28;1062;-52
2022/02/10 00:41:14;;;;;;;14.52;11.02;;;;;;;3.16;100.00;101359.16;682039;28;1651;-53
2022/02/10 00:41:34;;;;;;;14.30;10.90;;;;;;;3.12;100.00;101363.34;681108;28;1161;-55
2022/02/10 00:41:54;;;;;;;15.95;10.98;;;;;;;3.10;100.00;101361.50;681409;28;3414;-52
2022/02/10 00:42:15;;;;;;;14.93;11.00;;;;;;;3.15;100.00;101363.44;681791;28;1244;-51
2022/02/10 00:42:35;;;;;;;15.50;11.10;;;;;;;3.26;100.00;101363.84;678038;28;1194;-55
2022/02/10 00:42:57;;;;;;;15.10;11.53;;;;;;;3.31;100.00;101364.88;679179;28;4574;-55
2022/02/10 00:43:18;;;;;;;16.50;11.95;;;;;;;3.29;100.00;101363.94;680120;28;790;-56
2022/02/10 00:43:38;;;;;;;15.23;11.10;;;;;;;3.23;100.00;101363.72;679802;28;1065;-53
2022/02/10 00:43:58;;;;;;;14.27;11.00;;;;;;;3.21;100.00;101362.78;678777;28;1430;-53
2022/02/10 00:44:19;;;;;;;14.30;11.00;;;;;;;3.16;100.00;101362.63;681136;28;873;-54
2022/02/10 00:44:39;;;;;;;15.23;11.20;;;;;;;3.15;100.00;101363.44;679739;28;3493;-51
2022/02/10 00:45:00;;;;;;;14.38;10.95;;;;;;;3.10;100.00;101361.50;680048;28;1389;-54
2022/02/10 00:45:21;;;;;;;12.97;10.53;;;;;;;3.02;100.00;101363.81;679847;28;1664;-54
2022/02/10 00:45:43;;;;;;;14.70;10.70;;;;;;;3.01;100.00;101360.34;679332;29;790;-54
2022/02/10 00:46:03;;;;;;;14.55;10.93;;;;;;;3.09;100.00;101367.50;678885;28;4391;-55
2022/02/10 00:46:23;;;;;;;14.20;11.05;;;;;;;3.18;100.00;101358.38;679466;29;870;-53
2022/02/10 00:46:44;;;;;;;16.97;11.43;;;;;;;3.22;100.00;101361.97;674840;29;1344;-52
2022/02/10 00:47:04;;;;;;;16.13;11.13;;;;;;;3.20;100.00;101361.03;674303;29;1346;-54
2022/02/10 00:47:27;;;;;;;14.77;10.43;;;;;;;3.16;100.00;101360.03;676443;29;2051;-52
2022/02/10 00:47:56;;;;;;;14.20;10.82;;;;;;;3.10;100.00;101362.38;676823;28;3447;-53
2022/02/10 00:48:17;;;;;;;15.32;11.15;;;;;;;3.05;100.00;101356.19;676833;28;1076;-54
2022/02/10 00:48:37;;;;;;;14.80;10.40;;;;;;;3.12;100.00;101360.75;679247;28;730;-52
2022/02/10 00:48:58;;;;;;;15.45;11.02;;;;;;;3.18;100.00;101357.50;680493;28;4541;-53
2022/02/10 00:49:18;;;;;;;17.17;11.37;;;;;;;3.17;100.00;101360.91;680292;28;1184;-55
2022/02/10 00:49:40;;;;;;;15.10;10.95;;;;;;;3.12;100.00;101354.72;680957;28;1157;-53
2022/02/10 00:50:02;;;;;;;13.10;10.60;;;;;;;3.04;100.00;101355.28;679861;28;1374;-51
2022/02/10 00:50:25;;;;;;;13.38;10.18;;;;;;;3.02;100.00;101354.38;681668;28;2003;-52
2022/02/10 00:50:49;;;;;;;14.15;10.43;;;;;;;3.02;100.00;101356.94;680312;28;1375;-55
2022/02/10 00:51:10;;;;;;;15.30;10.75;;;;;;;3.03;100.00;101361.28;679796;28;1350;-51
2022/02/10 00:51:30;;;;;;;15.07;10.40;;;;;;;3.11;100.00;101358.97;680367;28;820;-52
2022/02/10 00:51:51;;;;;;;15.63;10.20;;;;;;;3.14;100.00;101356.50;677653;28;4492;-53
2022/02/10 00:52:11;;;;;;;14.00;10.27;;;;;;;3.10;100.00;101358.94;678397;28;962;-55
2022/02/10 00:52:32;;;;;;;14.33;10.47;;;;;;;3.03;100.00;101356.13;679579;28;976;-53
2022/02/10 00:53:01;;;;;;;14.37;10.20;;;;;;;2.98;100.00;101356.78;681475;28;939;-52
2022/02/10 00:53:28;;;;;;;13.70;10.30;;;;;;;2.94;100.00;101353.19;678950;28;3713;-54
2022/02/10 00:53:49;;;;;;;13.98;10.50;;;;;;;3.00;100.00;101353.41;681106;28;1131;-55
2022/02/10 00:54:10;;;;;;;12.53;10.53;;;;;;;2.99;100.00;101358.53;681159;28;874;-55
2022/02/10 00:54:31;;;;;;;13.82;10.57;;;;;;;2.96;100.00;101354.13;682130;28;731;-53
2022/02/10 00:54:51;;;;;;;14.90;10.20;;;;;;;2.91;100.00;101353.09;680622;28;4372;-52
2022/02/10 00:55:15;;;;;;;15.50;10.70;;;;;;;2.88;100.00;101353.84;679350;28;1049;-52
2022/02/10 00:55:39;;;;;;;15.02;11.07;;;;;;;2.83;100.00;101359.66;682345;28;793;-52
2022/02/10 00:55:59;;;;;;;14.93;11.13;;;;;;;2.76;100.00;101352.50;681224;28;3494;-54
2022/02/10 00:56:20;;;;;;;14.53;10.70;;;;;;;2.74;100.00;101352.44;680945;28;3237;-53
2022/02/10 00:56:40;;;;;;;14.93;11.30;;;;;;;2.69;100.00;101347.09;680411;28;1515;-52
2022/02/10 00:57:06;;;;;;;15.37;11.00;;;;;;;2.66;100.00;101349.56;681190;28;1217;-55
2022/02/10 00:57:26;;;;;;;14.88;10.73;;;;;;;2.61;100.00;101347.63;680957;28;955;-56
2022/02/10 00:57:46;;;;;;;16.60;10.37;;;;;;;2.63;100.00;101356.31;680336;28;861;-55
2022/02/10 00:58:10;;;;;;;16.70;10.50;;;;;;;2.64;100.00;101351.19;680710;28;4416;-52
2022/02/10 00:58:32;;;;;;;13.66;10.34;;;;;;;2.65;100.00;101347.81;680226;28;1141;-56
2022/02/10 00:59:08;;;;;;;14.32;10.30;;;;;;;2.70;100.00;101346.28;679994;28;3166;-53
2022/02/10 01:00:20;;;;;;;13.77;10.25;;;;;;;2.72;100.00;101346.34;678804;28;1434;-52
2022/02/10 01:07:02;;;;;;;15.43;10.13;;;;;;;2.95;100.00;101344.63;680690;28;1385;-54
2022/02/10 01:10:25;;;;;;;31.70;15.50;;;;;;;3.05;100.00;101351.03;677124;28;4428;-52
2022/02/10 01:11:00;;;;;;;25.70;14.15;;;;;;;2.87;100.00;101346.03;680688;28;1381;-52
2022/02/10 01:11:58;;;;;;;26.98;13.75;;;;;;;2.80;100.00;101351.81;680489;28;1027;-53
2022/02/10 01:12:41;;;;;;;24.05;14.00;;;;;;;2.68;100.00;101342.75;680470;28;1398;-55
2022/02/10 01:13:47;;;;;;;28.02;14.05;;;;;;;2.64;100.00;101347.75;679291;28;1565;-56
2022/02/10 01:13:48;;;;;;;22.90;13.30;;;;;;;2.61;100.00;101347.63;673259;29;4805;-56
2022/02/10 01:29:39;;;;;;;17.30;11.23;;;;;;;2.28;100.00;101325.72;667205;29;1119;-53
2022/02/10 01:30:00;;;;;;;16.42;11.48;;;;;;;2.13;100.00;101336.31;667431;29;3296;-52
2022/02/10 01:30:20;;;;;;;15.90;11.23;;;;;;;2.10;100.00;101327.56;670185;29;1258;-54
2022/02/10 01:30:41;;;;;;;17.27;11.55;;;;;;;2.07;100.00;101323.16;670708;29;1077;-60
2022/02/10 01:31:01;;;;;;;16.00;11.27;;;;;;;2.06;100.00;101325.69;672237;28;5100;-55
2022/02/10 01:31:22;;;;;;;14.05;11.02;;;;;;;2.14;100.00;101324.28;681027;28;1058;-52
2022/02/10 01:31:42;;;;;;;16.35;11.63;;;;;;;2.17;100.00;101324.41;681448;28;1100;-52
2022/02/10 01:32:04;;;;;;;16.57;11.67;;;;;;;2.21;100.00;101328.88;681197;28;1250;-53
2022/02/10 01:32:26;;;;;;;17.35;11.55;;;;;;;2.26;100.00;101322.19;680351;28;1232;-54
2022/02/10 01:32:51;;;;;;;16.88;11.70;;;;;;;2.23;100.00;101324.66;681384;28;1230;-52
2022/02/10 01:33:12;;;;;;;18.38;11.43;;;;;;;2.19;100.00;101322.78;680184;28;1296;-53
2022/02/10 01:33:34;;;;;;;16.42;11.32;;;;;;;2.15;100.00;101326.06;679916;28;2133;-53
2022/02/10 01:33:54;;;;;;;17.48;11.95;;;;;;;2.09;100.00;101323.22;681199;28;4657;-52
2022/02/10 01:34:15;;;;;;;19.50;12.68;;;;;;;2.03;100.00;101329.00;680999;28;1190;-53
2022/02/10 01:34:43;;;;;;;20.70;12.53;;;;;;;2.02;100.00;101325.56;680844;28;908;-54
2022/02/10 01:35:07;;;;;;;20.10;12.80;;;;;;;2.02;100.00;101328.13;680361;28;1196;-53
2022/02/10 01:35:28;;;;;;;20.63;13.20;;;;;;;2.01;100.00;101326.38;681951;28;1153;-53
2022/02/10 01:35:48;;;;;;;19.50;12.98;;;;;;;1.99;100.00;101325.41;680253;28;3567;-52
2022/02/10 01:36:09;;;;;;;19.33;12.80;;;;;;;1.99;100.00;101325.41;680151;28;1241;-55
2022/02/10 01:36:30;;;;;;;17.60;12.60;;;;;;;1.98;100.00;101325.34;680946;28;1651;-54
2022/02/10 01:36:51;;;;;;;19.90;13.05;;;;;;;1.97;100.00;101332.22;680011;28;4319;-55
2022/02/10 01:37:11;;;;;;;18.77;12.55;;;;;;;2.06;100.00;101328.25;681848;28;1416;-54
2022/02/10 01:37:31;;;;;;;18.00;12.13;;;;;;;2.12;100.00;101325.91;682652;28;1271;-52
2022/02/10 01:37:52;;;;;;;19.88;12.13;;;;;;;2.17;100.00;101332.16;681299;28;1276;-51
2022/02/10 01:38:13;;;;;;;19.27;12.63;;;;;;;2.11;100.00;101327.63;682398;28;1346;-56
2022/02/10 01:38:33;;;;;;;21.63;12.97;;;;;;;2.08;100.00;101324.94;682051;28;3167;-53
2022/02/10 01:38:54;;;;;;;20.17;12.53;;;;;;;2.06;100.00;101317.94;679901;28;1337;-53
2022/02/10 01:39:20;;;;;;;23.33;13.52;;;;;;;1.99;100.00;101320.25;677378;28;4336;-55
2022/02/10 01:39:54;;;;;;;24.13;13.00;;;;;;;1.96;100.00;101322.72;677940;29;1066;-55
2022/02/10 01:40:23;;;;;;;18.77;12.13;;;;;;;2.02;100.00;101322.97;678611;28;5053;-56
2022/02/10 01:43:04;;;;;;;18.23;12.30;;;;;;;2.16;100.00;101326.13;679563;28;1006;-54
2022/02/10 01:57:46;;;;;;;18.67;11.70;;;;;;;2.37;100.00;101317.47;680364;28;4391;-52
2022/02/10 01:58:09;;;;;;;14.52;10.82;;;;;;;1.97;100.00;101311.59;668884;29;4769;-51
2022/02/10 02:03:44;;;;;;;15.47;10.97;;;;;;;2.09;100.00;101300.91;676596;29;1170;-54
2022/02/10 02:04:04;;;;;;;16.00;10.93;;;;;;;2.07;100.00;101301.66;676972;28;4386;-53
2022/02/10 02:04:25;;;;;;;14.47;11.17;;;;;;;2.02;100.00;101294.63;681470;28;1443;-53
2022/02/10 02:04:46;;;;;;;14.73;10.95;;;;;;;1.99;100.00;101297.03;680791;28;1213;-52
2022/02/10 02:05:17;;;;;;;13.87;10.83;;;;;;;1.96;100.00;101299.50;681433;28;927;-53
2022/02/10 02:05:42;;;;;;;14.70;10.63;;;;;;;1.93;100.00;101291.66;681532;28;1067;-54
2022/02/10 02:06:13;;;;;;;14.52;11.05;;;;;;;1.97;100.00;101290.97;680335;28;968;-53
2022/02/10 02:06:42;;;;;;;14.90;11.27;;;;;;;1.96;100.00;101294.34;677784;28;1156;-52
2022/02/10 02:07:02;;;;;;;14.98;10.88;;;;;;;1.98;100.00;101291.81;677220;28;4493;-55
2022/02/10 02:07:28;;;;;;;13.70;11.03;;;;;;;1.99;100.00;101291.88;678392;28;1292;-52
2022/02/10 02:07:49;;;;;;;15.23;11.43;;;;;;;1.96;100.00;101289.19;679207;28;1059;-51
2022/02/10 02:08:10;;;;;;;17.73;12.20;;;;;;;1.94;100.00;101296.00;678216;28;1063;-52
2022/02/10 02:08:34;;;;;;;16.42;11.68;;;;;;;1.94;100.00;101290.84;680584;28;1037;-54
2022/02/10 02:08:57;;;;;;;15.77;11.35;;;;;;;1.93;100.00;101296.81;681125;28;1321;-52
2022/02/10 02:09:19;;;;;;;14.98;11.50;;;;;;;1.93;100.00;101296.81;679510;28;1081;-54
2022/02/10 02:09:39;;;;;;;16.08;11.65;;;;;;;1.94;100.00;101290.84;676278;29;3511;-55
2022/02/10 02:10:00;;;;;;;16.67;11.93;;;;;;;1.95;100.00;101282.28;677647;28;4432;-55
2022/02/10 02:10:20;;;;;;;17.07;11.77;;;;;;;1.95;100.00;101287.44;678755;28;1409;-53
2022/02/10 02:10:41;;;;;;;15.63;11.32;;;;;;;1.96;100.00;101284.03;678083;28;1172;-52
2022/02/10 02:11:02;;;;;;;15.45;11.68;;;;;;;1.96;100.00;101283.16;678972;28;1145;-54
2022/02/10 02:11:27;;;;;;;17.10;11.88;;;;;;;1.96;100.00;101278.88;681046;28;1164;-54
2022/02/10 02:11:52;;;;;;;17.67;12.38;;;;;;;1.95;100.00;101287.44;681840;28;1442;-52
2022/02/10 02:12:12;;;;;;;15.85;11.77;;;;;;;1.94;100.00;101285.69;681539;28;1128;-54
2022/02/10 02:12:32;;;;;;;16.47;11.40;;;;;;;1.97;100.00;101277.19;681933;28;3479;-56
2022/02/10 02:12:53;;;;;;;16.03;11.10;;;;;;;1.97;100.00;101279.78;680337;28;4629;-55
2022/02/10 02:13:13;;;;;;;15.17;11.43;;;;;;;1.98;100.00;101284.09;679738;28;1375;-55
2022/02/10 02:13:33;;;;;;;14.60;11.07;;;;;;;2.02;100.00;101283.41;682056;28;1977;-54
2022/02/10 02:13:54;;;;;;;13.93;10.85;;;;;;;2.07;100.00;101281.03;682533;28;1062;-54
2022/02/10 02:14:17;;;;;;;15.52;11.20;;;;;;;2.08;100.00;101282.75;678808;28;1154;-53
2022/02/10 02:14:38;;;;;;;16.60;11.02;;;;;;;2.10;100.00;101281.13;678233;28;986;-52
2022/02/10 02:14:58;;;;;;;13.95;10.60;;;;;;;2.15;100.00;101280.50;678820;28;1021;-52
2022/02/10 02:15:19;;;;;;;13.53;10.90;;;;;;;2.21;100.00;101272.97;679474;28;2047;-53
2022/02/10 02:15:39;;;;;;;14.30;10.85;;;;;;;2.19;100.00;101276.34;676687;28;990;-55
2022/02/10 02:16:00;;;;;;;14.27;11.07;;;;;;;2.17;100.00;101277.97;679540;28;4518;-55
2022/02/10 02:16:25;;;;;;;14.68;10.90;;;;;;;2.15;100.00;101279.63;681868;28;1184;-55
2022/02/10 02:16:48;;;;;;;13.27;10.57;;;;;;;2.13;100.00;101276.09;682204;28;1034;-52
2022/02/10 02:17:08;;;;;;;14.40;11.10;;;;;;;2.09;100.00;101271.63;681554;28;1167;-52
2022/02/10 02:17:28;;;;;;;16.37;11.57;;;;;;;2.10;100.00;101275.97;683160;28;1089;-52
2022/02/10 02:17:49;;;;;;;15.90;11.82;;;;;;;2.10;100.00;101273.41;681767;28;1006;-55
2022/02/10 02:18:09;;;;;;;16.00;11.63;;;;;;;2.13;100.00;101277.00;681123;28;4331;-55
2022/02/10 02:18:30;;;;;;;15.73;11.20;;;;;;;2.13;100.00;101273.50;680087;28;1313;-54
2022/02/10 02:18:50;;;;;;;14.40;11.30;;;;;;;2.12;100.00;101275.22;680564;28;1403;-54
2022/02/10 02:19:10;;;;;;;15.05;11.15;;;;;;;2.13;100.00;101276.09;676961;28;4460;-53
2022/02/10 02:19:32;;;;;;;17.83;11.43;;;;;;;2.13;100.00;101276.09;677047;29;1129;-62
2022/02/10 02:19:52;;;;;;;15.63;11.57;;;;;;;2.13;100.00;101278.66;678025;29;1050;-55
2022/02/10 02:20:12;;;;;;;16.20;11.47;;;;;;;2.12;100.00;101275.22;678344;28;939;-54
2022/02/10 02:20:33;;;;;;;16.17;11.40;;;;;;;2.11;100.00;101273.47;675756;29;1224;-56
2022/02/10 02:20:56;;;;;;;17.23;11.87;;;;;;;2.12;100.00;101274.31;675778;29;3157;-52
2022/02/10 02:21:20;;;;;;;15.68;11.88;;;;;;;2.13;100.00;101276.09;678822;28;4278;-53
2022/02/10 02:21:41;;;;;;;16.77;11.82;;;;;;;2.13;100.00;101276.09;679649;28;1306;-51
2022/02/10 02:22:03;;;;;;;16.23;10.90;;;;;;;2.17;100.00;101277.97;676813;28;4379;-51
2022/02/10 02:22:24;;;;;;;14.98;10.68;;;;;;;2.18;100.00;101280.59;679808;28;1101;-53
2022/02/10 02:22:44;;;;;;;13.33;10.77;;;;;;;2.20;100.00;101268.66;681884;28;1362;-55
2022/02/10 02:23:05;;;;;;;15.23;11.38;;;;;;;2.20;100.00;101270.34;681106;28;895;-54
2022/02/10 02:23:28;;;;;;;15.05;10.95;;;;;;;2.21;100.00;101267.81;680814;28;1074;-51
2022/02/10 02:23:49;;;;;;;16.27;11.63;;;;;;;2.22;100.00;101267.00;680728;28;3436;-55
2022/02/10 02:24:13;;;;;;;16.42;11.70;;;;;;;2.24;100.00;101269.66;679589;28;1413;-53
2022/02/10 02:24:35;;;;;;;15.32;11.23;;;;;;;2.23;100.00;101267.91;681061;28;1099;-53
2022/02/10 02:24:55;;;;;;;15.50;11.50;;;;;;;2.22;100.00;101260.97;680105;28;4501;-54
2022/02/10 02:25:16;;;;;;;15.00;11.50;;;;;;;2.20;100.00;101260.03;681394;28;1268;-55
2022/02/10 02:25:36;;;;;;;14.45;11.40;;;;;;;2.20;100.00;101266.09;682286;28;1410;-55
2022/02/10 02:26:04;;;;;;;15.67;11.40;;;;;;;2.21;100.00;101264.38;681419;28;1395;-55
2022/02/10 02:26:26;;;;;;;15.70;11.40;;;;;;;2.19;100.00;101261.75;681126;28;1149;-53
2022/02/10 02:26:49;;;;;;;16.60;11.40;;;;;;;2.20;100.00;101265.19;680016;28;3232;-53
2022/02/10 02:27:16;;;;;;;17.67;11.60;;;;;;;2.20;100.00;101262.59;680904;28;1101;-56
2022/02/10 02:27:44;;;;;;;16.15;12.02;;;;;;;2.22;100.00;101263.56;679636;28;1337;-53
2022/02/10 02:28:08;;;;;;;18.92;12.20;;;;;;;2.21;100.00;101265.25;679076;28;5293;-52
2022/02/10 02:28:34;;;;;;;16.48;12.20;;;;;;;2.24;100.00;101266.19;681746;28;1291;-55
2022/02/10 02:28:59;;;;;;;17.15;12.20;;;;;;;2.23;100.00;101267.91;681512;28;962;-54
2022/02/10 02:29:28;;;;;;;18.20;12.70;;;;;;;2.25;100.00;101265.38;680762;28;3162;-54
2022/02/10 02:30:00;;;;;;;17.10;11.80;;;;;;;2.24;100.00;101263.63;680406;28;3657;-52
2022/02/10 02:30:31;;;;;;;13.95;11.27;;;;;;;2.27;100.00;101264.63;680236;28;1440;-56
2022/02/10 02:31:01;;;;;;;14.63;11.50;;;;;;;2.28;100.00;101260.34;678765;28;4976;-53
2022/02/10 02:31:30;;;;;;;15.95;11.73;;;;;;;2.28;100.00;101266.38;679903;28;1137;-55
2022/02/10 02:31:57;;;;;;;15.05;11.43;;;;;;;2.31;100.00;101265.59;680480;28;1106;-52
2022/02/10 02:32:27;;;;;;;14.60;11.20;;;;;;;2.31;100.00;101261.34;682132;28;3289;-53
2022/02/10 02:35:41;;;;;;;15.32;11.10;;;;;;;2.37;100.00;101260.69;680033;28;3857;-52
2022/02/10 02:38:03;;;;;;;15.65;12.13;;;;;;;2.44;100.00;101261.78;680362;28;1291;-53
2022/02/10 02:39:32;;;;;;;14.32;11.13;;;;;;;2.46;100.00;101257.56;681876;28;4295;-53
2022/02/10 03:04:37;;;;;;;14.63;10.70;;;;;;;2.71;100.00;101225.81;680837;28;1178;-54
2022/02/10 03:05:36;;;;;;;13.70;10.40;;;;;;;2.69;100.00;101219.72;682480;28;1086;-53
2022/02/10 03:06:03;;;;;;;14.85;10.70;;;;;;;2.68;100.00;101221.41;681514;28;1185;-53
2022/02/10 03:06:32;;;;;;;13.65;10.90;;;;;;;2.68;100.00;101217.94;680589;28;1142;-57
2022/02/10 03:06:59;;;;;;;14.82;10.85;;;;;;;2.67;100.00;101218.78;680848;28;1298;-52
2022/02/10 03:08:13;;;;;;;13.35;10.98;;;;;;;2.65;100.00;101221.31;682635;28;1039;-53
2022/02/10 03:08:41;;;;;;;14.68;11.20;;;;;;;2.65;100.00;101215.28;680720;28;1096;-54
2022/02/10 03:09:10;;;;;;;13.50;10.65;;;;;;;2.65;100.00;101212.69;681126;28;2374;-52
2022/02/10 03:09:31;;;;;;;12.73;9.90;;;;;;;2.67;100.00;101214.50;679869;28;3477;-51
2022/02/10 03:10:07;;;;;;;14.45;10.20;;;;;;;2.67;100.00;101214.50;677450;28;4590;-53
2022/02/10 03:11:13;;;;;;;12.57;10.05;;;;;;;2.64;100.00;101209.22;675982;29;1346;-53
2022/02/10 03:11:35;;;;;;;13.63;10.73;;;;;;;2.63;100.00;101214.31;677818;28;1414;-55
2022/02/10 03:11:58;;;;;;;13.73;11.02;;;;;;;2.62;100.00;101210.88;678037;28;1870;-52
2022/02/10 03:12:19;;;;;;;14.57;10.85;;;;;;;2.61;100.00;101215.97;678746;28;3654;-55
2022/02/10 03:12:39;;;;;;;14.70;10.80;;;;;;;2.59;100.00;101210.75;681436;28;1302;-53
2022/02/10 03:12:59;;;;;;;14.25;10.85;;;;;;;2.58;100.00;101210.72;680219;28;4454;-54
2022/02/10 03:13:27;;;;;;;16.40;11.43;;;;;;;2.57;100.00;101207.22;681735;28;1125;-53
2022/02/10 03:14:22;;;;;;;14.68;11.02;;;;;;;2.56;100.00;101205.47;683052;28;1140;-53
2022/02/10 03:14:47;;;;;;;15.20;11.40;;;;;;;2.56;100.00;101210.63;681355;28;2168;-54
2022/02/10 03:15:17;;;;;;;15.52;11.10;;;;;;;2.55;100.00;101201.16;680820;28;3963;-51
2022/02/10 03:18:37;;;;;;;14.35;10.73;;;;;;;2.57;100.00;101196.03;681087;28;1441;-52
2022/02/10 03:19:58;;;;;;;13.57;10.48;;;;;;;2.58;100.00;101201.25;681238;28;1024;-56
2022/02/10 04:01:14;;;;;;;15.23;10.40;;;;;;;1.94;100.00;101138.69;680414;28;1257;-53
2022/02/10 04:04:14;;;;;;;13.23;9.90;;;;;;;2.04;100.00;101140.78;680461;28;3580;-53
2022/02/10 04:04:31;;;;;;;13.23;9.82;;;;;;;2.10;100.00;101141.84;670118;29;4333;-53
2022/02/10 04:07:40;;;;;;;13.97;9.63;;;;;;;2.07;100.00;101141.75;680555;28;1326;-51
2022/02/10 04:10:41;;;;;;;11.70;9.23;;;;;;;2.10;100.00;101136.69;678115;28;1618;-53
2022/02/10 04:13:18;;;;;;;14.70;9.73;;;;;;;1.97;100.00;101131.06;681275;28;4332;-53
2022/02/10 04:14:41;;;;;;;13.95;9.70;;;;;;;1.99;100.00;101134.56;672627;29;3742;-52
2022/02/10 04:16:43;;;;;;;12.63;8.73;;;;;;;2.13;100.00;101126.47;680667;28;1250;-53
2022/02/10 04:17:26;;;;;;;12.27;8.80;;;;;;;2.14;100.00;101130.81;681559;28;3208;-52
2022/02/10 04:18:45;;;;;;;11.60;8.63;;;;;;;2.13;100.00;101123.91;683073;28;1259;-54
2022/02/10 04:21:58;;;;;;;15.35;9.80;;;;;;;1.97;100.00;101125.91;678150;28;4411;-54
2022/02/10 04:22:27;;;;;;;12.63;9.45;;;;;;;1.93;100.00;101129.19;678588;28;1062;-51
2022/02/10 04:24:09;;;;;;;13.95;9.85;;;;;;;1.94;100.00;101127.50;681154;28;960;-54
2022/02/10 04:25:27;;;;;;;12.88;9.65;;;;;;;1.91;100.00;101122.22;679739;28;4429;-53
2022/02/10 04:26:51;;;;;;;13.02;9.30;;;;;;;1.84;100.00;101122.00;681170;28;1189;-52
2022/02/10 04:30:17;;;;;;;14.27;10.00;;;;;;;1.89;100.00;101122.16;679442;28;1471;-51
2022/02/10 04:38:30;;;;;;;13.77;9.80;;;;;;;1.87;100.00;101123.81;670539;29;1003;-52
2022/02/10 04:56:54;;;;;;;13.07;9.25;;;;;;;2.17;100.00;101141.25;666867;29;1277;-54
2022/02/10 04:58:16;;;;;;;13.43;9.32;;;;;;;2.20;100.00;101141.34;668163;29;4589;-50
2022/02/10 04:58:53;;;;;;;12.80;9.13;;;;;;;2.20;100.00;101139.69;681622;28;1081;-55
2022/02/10 04:59:37;;;;;;;14.25;9.63;;;;;;;2.21;100.00;101144.00;681485;28;1118;-53
2022/02/10 05:01:01;;;;;;;13.63;9.05;;;;;;;2.25;100.00;101141.56;681170;28;1480;-52
2022/02/10 05:02:13;;;;;;;14.90;9.45;;;;;;;2.27;100.00;101143.38;677921;29;1018;-55
2022/02/10 05:15:59;;;;;;;13.93;9.32;;;;;;;2.45;100.00;101134.53;677643;28;1313;-51
2022/02/10 05:17:31;;;;;;;12.05;9.13;;;;;;;2.47;100.00;101127.72;678676;28;1636;-51
2022/02/10 05:23:55;;;;;;;13.20;9.00;;;;;;;2.46;100.00;101120.78;681380;28;1169;-52
2022/02/10 05:24:28;;;;;;;13.48;9.00;;;;;;;2.45;100.00;101121.63;682696;28;1630;-51
2022/02/10 05:31:27;;;;;;;13.75;8.90;;;;;;;2.45;100.00;101126.78;681010;28;4488;-52
2022/02/10 05:32:35;;;;;;;10.80;8.27;;;;;;;2.47;100.00;101127.72;677761;28;1111;-52
2022/02/10 05:33:47;;;;;;;11.63;8.40;;;;;;;2.47;100.00;101118.28;678262;28;1220;-52
2022/02/10 05:34:09;;;;;;;12.35;7.90;;;;;;;2.50;100.00;101117.50;680802;28;4876;-50
2022/02/10 05:34:39;;;;;;;12.50;8.30;;;;;;;2.51;100.00;101121.84;679595;28;1070;-52
2022/02/10 05:36:05;;;;;;;10.82;8.27;;;;;;;2.55;100.00;101121.13;677766;28;1410;-54
2022/02/10 05:36:31;;;;;;;10.63;8.00;;;;;;;2.55;100.00;101121.13;677806;29;3237;-55
2022/02/10 05:36:53;;;;;;;10.70;7.78;;;;;;;2.54;100.00;101115.06;679207;28;4454;-51
2022/02/10 05:37:16;;;;;;;12.45;7.68;;;;;;;2.55;100.00;101121.13;679162;28;1651;-51
2022/02/10 05:37:38;;;;;;;11.05;7.70;;;;;;;2.56;100.00;101120.28;681650;28;1459;-50
2022/02/10 05:38:10;;;;;;;10.75;7.95;;;;;;;2.55;100.00;101115.97;678641;28;1490;-53
2022/02/10 05:38:39;;;;;;;10.13;8.05;;;;;;;2.55;100.00;101115.97;678460;28;1687;-54
2022/02/10 05:39:19;;;;;;;12.07;8.32;;;;;;;2.55;100.00;101123.72;676189;29;4817;-55
2022/02/10 05:39:49;;;;;;;12.93;8.85;;;;;;;2.49;100.00;101121.81;677606;29;3540;-53
2022/02/10 05:40:21;;;;;;;12.65;9.05;;;;;;;2.48;100.00;101124.28;672404;29;6159;-54
2022/02/10 05:42:56;;;;;;;13.75;9.07;;;;;;;2.49;100.00;101124.38;667044;29;3895;-53
2022/02/10 05:43:29;;;;;;;12.57;9.07;;;;;;;2.48;100.00;101124.28;667110;29;5672;-56
2022/02/10 05:45:21;;;;;;;12.10;8.95;;;;;;;2.47;100.00;101119.97;668098;29;4270;-53
2022/02/10 05:46:03;;;;;;;12.13;9.02;;;;;;;2.45;100.00;101119.03;667513;29;1784;-53
2022/02/10 05:46:47;;;;;;;12.10;9.23;;;;;;;2.44;100.00;101118.16;668042;29;4868;-52
2022/02/10 05:49:51;;;;;;;13.03;9.37;;;;;;;2.40;100.00;101115.44;678098;28;4330;-52
2022/02/10 05:50:58;;;;;;;13.98;9.50;;;;;;;2.37;100.00;101109.31;678140;28;1141;-54
2022/02/10 05:55:21;;;;;;;13.45;9.80;;;;;;;2.37;100.00;101118.78;677342;28;1377;-53
2022/02/10 05:56:15;;;;;;;11.80;9.52;;;;;;;2.45;100.00;101131.94;679150;29;1159;-57
2022/02/10 05:56:45;;;;;;;12.32;9.30;;;;;;;2.43;100.00;101121.56;678034;28;2188;-51
2022/02/10 05:58:24;;;;;;;13.35;9.98;;;;;;;2.43;100.00;101115.53;680969;28;1054;-52
2022/02/10 06:01:54;;;;;;;14.68;9.98;;;;;;;2.38;100.00;101126.56;678178;28;1299;-62
2022/02/10 06:38:28;;;;;;;13.52;10.02;;;;;;;2.38;100.00;101120.50;681050;28;1060;-52
2022/02/10 06:48:33;;;;;;;13.43;9.98;;;;;;;2.73;100.00;101128.66;678654;28;1712;-54
2022/02/10 06:49:35;;;;;;;14.05;10.52;;;;;;;2.73;100.00;101120.91;677758;28;4782;-56
2022/02/10 06:51:12;;;;;;;16.77;10.57;;;;;;;2.80;100.00;101127.16;678584;28;1474;-52
2022/02/10 06:52:07;;;;;;;14.73;10.00;;;;;;;2.82;100.00;101133.22;677202;29;4561;-53
2022/02/10 06:52:43;;;;;;;15.23;10.40;;;;;;;2.81;100.00;101137.53;678346;28;1427;-53
2022/02/10 06:55:27;;;;;;;13.73;9.75;;;;;;;2.89;100.00;101120.59;675988;29;4876;-56
2022/02/10 06:58:07;;;;;;;12.82;9.10;;;;;;;2.87;100.00;101119.66;667002;29;1040;-55
2022/02/10 07:03:14;;;;;;;11.73;8.63;;;;;;;2.90;100.00;101135.25;682221;28;1069;-51
2022/02/10 07:03:50;;;;;;;12.45;8.85;;;;;;;2.92;100.00;101132.72;681547;28;1517;-56
2022/02/10 07:05:38;;;;;;;13.48;9.40;;;;;;;2.95;100.00;101140.59;673462;29;1480;-54
2022/02/10 07:06:42;;;;;;;13.32;9.23;;;;;;;2.94;100.00;101141.41;678834;28;1205;-52
2022/02/10 07:10:07;;;;;;;12.70;9.55;;;;;;;2.94;100.00;101141.41;673022;29;1306;-53